sensor_id;sensor_type;location;lat;lon;timestamp;noise_LAeq;noise_LA_min;noise_LA_max;noise_LA01;noise_LA95
37223;Laerm;28026;48.562;14.440;2023-07-31T00:01:19;40.75;33.90;44.87;;
37223;Laerm;28026;48.562;14.440;2023-07-31T00:03:49;39.74;32.35;43.63;;
37223;Laerm;28026;48.562;14.440;2023-07-31T00:06:20;37.51;30.89;41.53;;
37223;Laerm;28026;48.562;14.440;2023-07-31T00:08:51;36.56;30.89;39.58;;
37223;Laerm;28026;48.562;14.440;2023-07-31T00:11:22;36.54;30.89;39.81;;
37223;Laerm;28026;48.562;14.440;2023-07-31T00:13:53;39.49;31.68;44.58;;
37223;Laerm;28026;48.562;14.440;2023-07-31T00:16:24;37.59;31.68;42.93;;
37223;Laerm;28026;48.562;14.440;2023-07-31T00:18:55;36.52;30.89;39.34;;
37223;Laerm;28026;48.562;14.440;2023-07-31T00:21:26;36.45;31.68;39.92;;
37223;Laerm;28026;48.562;14.440;2023-07-31T00:23:57;36.49;31.68;40.03;;
37223;Laerm;28026;48.562;14.440;2023-07-31T00:26:28;39.44;31.68;45.30;;
37223;Laerm;28026;48.562;14.440;2023-07-31T00:28:59;41.82;35.36;45.86;;
37223;Laerm;28026;48.562;14.440;2023-07-31T00:31:30;37.53;29.92;42.76;;
37223;Laerm;28026;48.562;14.440;2023-07-31T00:34:00;36.59;29.92;39.58;;
37223;Laerm;28026;48.562;14.440;2023-07-31T00:36:31;36.49;30.89;40.03;;
37223;Laerm;28026;48.562;14.440;2023-07-31T00:39:02;36.62;29.92;55.09;;
37223;Laerm;28026;48.562;14.440;2023-07-31T00:41:34;36.47;29.92;39.46;;
37223;Laerm;28026;48.562;14.440;2023-07-31T00:44:05;36.72;28.67;40.33;;
37223;Laerm;28026;48.562;14.440;2023-07-31T00:46:36;36.85;31.33;40.33;;
37223;Laerm;28026;48.562;14.440;2023-07-31T00:49:08;36.48;29.92;39.46;;
37223;Laerm;28026;48.562;14.440;2023-07-31T00:51:39;36.46;30.89;39.92;;
37223;Laerm;28026;48.562;14.440;2023-07-31T00:54:11;36.61;30.89;44.73;;
37223;Laerm;28026;48.562;14.440;2023-07-31T00:56:45;36.52;30.54;39.92;;
37223;Laerm;28026;48.562;14.440;2023-07-31T00:59:16;36.69;30.89;40.08;;
37223;Laerm;28026;48.562;14.440;2023-07-31T01:01:49;37.30;30.89;45.11;;
37223;Laerm;28026;48.562;14.440;2023-07-31T01:04:21;40.88;34.31;46.23;;
37223;Laerm;28026;48.562;14.440;2023-07-31T01:12:28;37.00;30.89;42.03;;
37223;Laerm;28026;48.562;14.440;2023-07-31T01:15:05;36.59;29.92;40.03;;
37223;Laerm;28026;48.562;14.440;2023-07-31T01:17:38;36.52;26.91;40.88;;
37223;Laerm;28026;48.562;14.440;2023-07-31T01:20:21;36.71;31.68;44.39;;
37223;Laerm;28026;48.562;14.440;2023-07-31T01:26:08;36.45;29.92;39.58;;
37223;Laerm;28026;48.562;14.440;2023-07-31T01:29:27;36.64;31.68;40.13;;
37223;Laerm;28026;48.562;14.440;2023-07-31T01:32:03;38.94;30.89;45.17;;
37223;Laerm;28026;48.562;14.440;2023-07-31T01:34:37;41.16;34.69;50.53;;
37223;Laerm;28026;48.562;14.440;2023-07-31T01:37:07;37.59;30.89;42.30;;
37223;Laerm;28026;48.562;14.440;2023-07-31T01:39:39;36.90;30.89;41.68;;
37223;Laerm;28026;48.562;14.440;2023-07-31T01:42:09;36.66;29.92;41.53;;
37223;Laerm;28026;48.562;14.440;2023-07-31T01:44:40;37.59;28.67;43.37;;
37223;Laerm;28026;48.562;14.440;2023-07-31T01:47:11;37.01;29.92;42.03;;
37223;Laerm;28026;48.562;14.440;2023-07-31T01:49:42;39.22;29.92;68.96;;
37223;Laerm;28026;48.562;14.440;2023-07-31T01:52:13;36.77;30.89;40.43;;
37223;Laerm;28026;48.562;14.440;2023-07-31T01:54:44;37.49;30.89;48.67;;
37223;Laerm;28026;48.562;14.440;2023-07-31T01:57:14;37.21;29.92;45.72;;
37223;Laerm;28026;48.562;14.440;2023-07-31T01:59:45;41.48;33.90;46.15;;
37223;Laerm;28026;48.562;14.440;2023-07-31T02:02:16;37.45;30.89;52.13;;
37223;Laerm;28026;48.562;14.440;2023-07-31T02:04:47;38.20;30.89;62.51;;
37223;Laerm;28026;48.562;14.440;2023-07-31T02:07:18;40.74;33.44;55.23;;
37223;Laerm;28026;48.562;14.440;2023-07-31T02:09:49;37.50;30.89;44.03;;
37223;Laerm;28026;48.562;14.440;2023-07-31T02:12:20;36.70;30.89;40.71;;
37223;Laerm;28026;48.562;14.440;2023-07-31T02:14:51;37.83;30.89;42.93;;
37223;Laerm;28026;48.562;14.440;2023-07-31T02:17:22;37.29;28.67;41.96;;
37223;Laerm;28026;48.562;14.440;2023-07-31T02:19:53;37.79;31.68;44.83;;
37223;Laerm;28026;48.562;14.440;2023-07-31T02:22:23;39.13;29.92;46.43;;
37223;Laerm;28026;48.562;14.440;2023-07-31T02:24:54;41.11;30.89;45.51;;
37223;Laerm;28026;48.562;14.440;2023-07-31T02:27:25;36.97;30.89;42.41;;
37223;Laerm;28026;48.562;14.440;2023-07-31T02:29:58;38.91;32.35;45.20;;
37223;Laerm;28026;48.562;14.440;2023-07-31T02:32:30;40.66;33.90;45.20;;
37223;Laerm;28026;48.562;14.440;2023-07-31T02:35:00;39.50;32.35;57.53;;
37223;Laerm;28026;48.562;14.440;2023-07-31T02:37:31;39.59;32.93;46.77;;
37223;Laerm;28026;48.562;14.440;2023-07-31T02:40:03;39.84;33.90;46.20;;
37223;Laerm;28026;48.562;14.440;2023-07-31T02:42:34;39.98;33.09;51.08;;
37223;Laerm;28026;48.562;14.440;2023-07-31T02:45:06;38.16;31.68;52.19;;
37223;Laerm;28026;48.562;14.440;2023-07-31T02:47:37;38.97;31.68;52.08;;
37223;Laerm;28026;48.562;14.440;2023-07-31T02:50:08;36.85;30.89;40.62;;
37223;Laerm;28026;48.562;14.440;2023-07-31T02:52:39;38.02;32.35;42.82;;
37223;Laerm;28026;48.562;14.440;2023-07-31T02:55:10;42.19;32.93;48.71;;
37223;Laerm;28026;48.562;14.440;2023-07-31T02:57:41;39.21;32.35;59.75;;
37223;Laerm;28026;48.562;14.440;2023-07-31T03:00:12;43.69;29.92;62.80;;
37223;Laerm;28026;48.562;14.440;2023-07-31T03:02:43;41.48;34.31;55.09;;
37223;Laerm;28026;48.562;14.440;2023-07-31T03:05:14;42.75;34.69;57.31;;
37223;Laerm;28026;48.562;14.440;2023-07-31T03:07:45;40.03;32.93;49.72;;
37223;Laerm;28026;48.562;14.440;2023-07-31T03:10:16;36.97;29.92;40.71;;
37223;Laerm;28026;48.562;14.440;2023-07-31T03:12:47;37.64;30.89;50.44;;
37223;Laerm;28026;48.562;14.440;2023-07-31T03:15:18;38.69;33.44;49.00;;
37223;Laerm;28026;48.562;14.440;2023-07-31T03:17:49;37.13;32.35;42.53;;
37223;Laerm;28026;48.562;14.440;2023-07-31T03:20:20;39.34;29.92;47.09;;
37223;Laerm;28026;48.562;14.440;2023-07-31T03:22:51;41.23;33.90;45.54;;
37223;Laerm;28026;48.562;14.440;2023-07-31T03:25:22;40.78;33.44;53.90;;
37223;Laerm;28026;48.562;14.440;2023-07-31T03:27:52;39.58;32.35;48.49;;
37223;Laerm;28026;48.562;14.440;2023-07-31T03:30:23;45.13;37.17;58.65;;
37223;Laerm;28026;48.562;14.440;2023-07-31T03:32:54;38.34;32.35;44.51;;
37223;Laerm;28026;48.562;14.440;2023-07-31T03:35:25;39.99;33.90;46.23;;
37223;Laerm;28026;48.562;14.440;2023-07-31T03:37:56;37.84;31.68;43.34;;
37223;Laerm;28026;48.562;14.440;2023-07-31T03:40:27;38.13;32.35;45.36;;
37223;Laerm;28026;48.562;14.440;2023-07-31T03:42:58;44.53;38.67;53.57;;
37223;Laerm;28026;48.562;14.440;2023-07-31T03:45:29;39.10;32.93;44.31;;
37223;Laerm;28026;48.562;14.440;2023-07-31T03:47:59;42.88;32.93;53.61;;
37223;Laerm;28026;48.562;14.440;2023-07-31T03:50:31;41.65;33.90;52.04;;
37223;Laerm;28026;48.562;14.440;2023-07-31T03:53:01;43.30;33.90;52.72;;
37223;Laerm;28026;48.562;14.440;2023-07-31T03:55:32;43.34;39.08;47.72;;
37223;Laerm;28026;48.562;14.440;2023-07-31T03:58:03;43.79;36.20;52.46;;
37223;Laerm;28026;48.562;14.440;2023-07-31T04:00:34;38.45;33.90;43.49;;
37223;Laerm;28026;48.562;14.440;2023-07-31T04:03:05;44.14;34.31;59.12;;
37223;Laerm;28026;48.562;14.440;2023-07-31T04:05:38;42.96;34.69;57.51;;
37223;Laerm;28026;48.562;14.440;2023-07-31T04:08:10;40.21;35.04;45.01;;
37223;Laerm;28026;48.562;14.440;2023-07-31T04:10:41;44.18;37.52;55.17;;
37223;Laerm;28026;48.562;14.440;2023-07-31T04:13:12;39.17;33.90;55.37;;
37223;Laerm;28026;48.562;14.440;2023-07-31T04:15:48;39.24;33.44;50.93;;
37223;Laerm;28026;48.562;14.440;2023-07-31T04:18:19;39.87;34.31;45.30;;
37223;Laerm;28026;48.562;14.440;2023-07-31T04:20:50;40.95;35.04;53.87;;
37223;Laerm;28026;48.562;14.440;2023-07-31T04:23:21;42.32;36.20;52.52;;
37223;Laerm;28026;48.562;14.440;2023-07-31T04:25:52;39.95;35.01;45.83;;
37223;Laerm;28026;48.562;14.440;2023-07-31T04:28:23;39.51;31.68;50.60;;
37223;Laerm;28026;48.562;14.440;2023-07-31T04:30:54;40.41;34.31;49.62;;
37223;Laerm;28026;48.562;14.440;2023-07-31T04:33:24;40.43;35.04;50.06;;
37223;Laerm;28026;48.562;14.440;2023-07-31T04:35:55;42.13;35.36;47.76;;
37223;Laerm;28026;48.562;14.440;2023-07-31T04:38:26;43.88;37.32;55.50;;
37223;Laerm;28026;48.562;14.440;2023-07-31T04:40:57;41.60;35.36;46.77;;
37223;Laerm;28026;48.562;14.440;2023-07-31T04:43:28;44.06;35.94;53.81;;
37223;Laerm;28026;48.562;14.440;2023-07-31T04:45:59;42.89;37.52;54.51;;
37223;Laerm;28026;48.562;14.440;2023-07-31T04:48:30;44.17;40.13;51.64;;
37223;Laerm;28026;48.562;14.440;2023-07-31T04:51:00;41.83;35.59;56.07;;
37223;Laerm;28026;48.562;14.440;2023-07-31T04:53:31;43.18;38.67;47.83;;
37223;Laerm;28026;48.562;14.440;2023-07-31T04:56:03;41.61;37.12;53.79;;
37223;Laerm;28026;48.562;14.440;2023-07-31T04:58:34;41.99;36.91;49.46;;
37223;Laerm;28026;48.562;14.440;2023-07-31T05:01:05;39.02;33.90;44.03;;
37223;Laerm;28026;48.562;14.440;2023-07-31T05:03:35;40.99;35.01;50.12;;
37223;Laerm;28026;48.562;14.440;2023-07-31T05:06:06;40.78;36.20;47.46;;
37223;Laerm;28026;48.562;14.440;2023-07-31T05:08:37;41.06;35.36;53.79;;
37223;Laerm;28026;48.562;14.440;2023-07-31T05:11:08;40.64;34.31;49.37;;
37223;Laerm;28026;48.562;14.440;2023-07-31T05:13:39;39.47;34.69;55.81;;
37223;Laerm;28026;48.562;14.440;2023-07-31T05:16:10;42.61;36.20;53.41;;
37223;Laerm;28026;48.562;14.440;2023-07-31T05:18:41;41.78;35.94;45.20;;
37223;Laerm;28026;48.562;14.440;2023-07-31T05:21:12;40.89;35.66;48.52;;
37223;Laerm;28026;48.562;14.440;2023-07-31T05:23:42;42.05;35.94;45.72;;
37223;Laerm;28026;48.562;14.440;2023-07-31T05:26:13;39.43;33.44;48.03;;
37223;Laerm;28026;48.562;14.440;2023-07-31T05:28:44;41.36;33.90;50.13;;
37223;Laerm;28026;48.562;14.440;2023-07-31T05:31:15;39.86;35.04;54.98;;
37223;Laerm;28026;48.562;14.440;2023-07-31T05:33:46;39.42;32.93;60.77;;
37223;Laerm;28026;48.562;14.440;2023-07-31T05:36:17;41.15;33.44;51.84;;
37223;Laerm;28026;48.562;14.440;2023-07-31T05:38:48;52.82;33.90;75.41;;
37223;Laerm;28026;48.562;14.440;2023-07-31T05:41:19;42.14;35.66;63.94;;
37223;Laerm;28026;48.562;14.440;2023-07-31T05:43:50;46.83;36.20;73.42;;
37223;Laerm;28026;48.562;14.440;2023-07-31T05:46:22;47.88;36.20;70.15;;
37223;Laerm;28026;48.562;14.440;2023-07-31T05:48:53;47.10;33.44;71.39;;
37223;Laerm;28026;48.562;14.440;2023-07-31T05:51:23;53.01;36.91;79.45;;
37223;Laerm;28026;48.562;14.440;2023-07-31T05:53:54;54.29;37.32;80.42;;
37223;Laerm;28026;48.562;14.440;2023-07-31T05:56:25;53.03;35.36;79.12;;
37223;Laerm;28026;48.562;14.440;2023-07-31T05:58:57;50.63;34.69;83.41;;
37223;Laerm;28026;48.562;14.440;2023-07-31T06:01:29;40.69;33.44;61.34;;
37223;Laerm;28026;48.562;14.440;2023-07-31T06:03:59;48.09;35.66;74.24;;
37223;Laerm;28026;48.562;14.440;2023-07-31T06:06:31;45.13;34.69;75.61;;
37223;Laerm;28026;48.562;14.440;2023-07-31T06:09:02;49.32;36.45;74.61;;
37223;Laerm;28026;48.562;14.440;2023-07-31T06:11:34;45.33;36.69;64.52;;
37223;Laerm;28026;48.562;14.440;2023-07-31T06:14:05;41.89;35.04;64.99;;
37223;Laerm;28026;48.562;14.440;2023-07-31T06:16:35;44.08;36.20;61.96;;
37223;Laerm;28026;48.562;14.440;2023-07-31T06:19:06;45.31;37.12;71.12;;
37223;Laerm;28026;48.562;14.440;2023-07-31T06:21:38;42.01;34.69;60.68;;
37223;Laerm;28026;48.562;14.440;2023-07-31T06:24:09;52.34;36.91;76.76;;
37223;Laerm;28026;48.562;14.440;2023-07-31T06:26:40;48.67;34.31;75.59;;
37223;Laerm;28026;48.562;14.440;2023-07-31T06:29:11;56.97;36.20;87.36;;
37223;Laerm;28026;48.562;14.440;2023-07-31T06:31:41;54.54;36.20;76.71;;
37223;Laerm;28026;48.562;14.440;2023-07-31T06:34:12;52.88;36.69;78.04;;
37223;Laerm;28026;48.562;14.440;2023-07-31T06:36:43;45.16;36.69;68.49;;
37223;Laerm;28026;48.562;14.440;2023-07-31T06:39:14;47.47;34.69;73.57;;
37223;Laerm;28026;48.562;14.440;2023-07-31T06:41:45;55.76;34.69;82.96;;
37223;Laerm;28026;48.562;14.440;2023-07-31T06:44:16;60.21;35.36;86.31;;
37223;Laerm;28026;48.562;14.440;2023-07-31T06:46:47;51.69;35.86;79.97;;
37223;Laerm;28026;48.562;14.440;2023-07-31T06:49:18;57.84;35.66;86.36;;
37223;Laerm;28026;48.562;14.440;2023-07-31T06:51:48;60.19;37.12;87.17;;
37223;Laerm;28026;48.562;14.440;2023-07-31T06:54:19;49.30;35.01;73.02;;
37223;Laerm;28026;48.562;14.440;2023-07-31T06:56:50;57.47;35.94;82.65;;
37223;Laerm;28026;48.562;14.440;2023-07-31T06:59:21;60.69;39.58;84.28;;
37223;Laerm;28026;48.562;14.440;2023-07-31T07:01:52;54.58;35.66;78.41;;
37223;Laerm;28026;48.562;14.440;2023-07-31T07:04:23;50.78;37.70;78.30;;
37223;Laerm;28026;48.562;14.440;2023-07-31T07:06:53;49.17;37.70;75.69;;
37223;Laerm;28026;48.562;14.440;2023-07-31T07:09:24;49.40;36.77;76.60;;
37223;Laerm;28026;48.562;14.440;2023-07-31T07:11:55;50.59;35.94;78.19;;
37223;Laerm;28026;48.562;14.440;2023-07-31T07:14:26;59.64;37.70;90.69;;
37223;Laerm;28026;48.562;14.440;2023-07-31T07:16:57;47.41;37.32;75.36;;
37223;Laerm;28026;48.562;14.440;2023-07-31T07:19:28;60.29;36.56;89.90;;
37223;Laerm;28026;48.562;14.440;2023-07-31T07:21:59;53.99;36.91;77.05;;
37223;Laerm;28026;48.562;14.440;2023-07-31T07:24:32;64.71;37.32;93.74;;
37223;Laerm;28026;48.562;14.440;2023-07-31T07:27:04;55.66;37.70;81.36;;
37223;Laerm;28026;48.562;14.440;2023-07-31T07:29:35;52.54;38.95;77.30;;
37223;Laerm;28026;48.562;14.440;2023-07-31T07:32:07;61.83;36.91;89.58;;
37223;Laerm;28026;48.562;14.440;2023-07-31T07:34:38;54.70;37.88;81.42;;
37223;Laerm;28026;48.562;14.440;2023-07-31T07:37:09;61.11;37.52;86.04;;
37223;Laerm;28026;48.562;14.440;2023-07-31T07:39:41;54.00;38.21;77.96;;
37223;Laerm;28026;48.562;14.440;2023-07-31T07:42:11;56.15;37.32;83.72;;
37223;Laerm;28026;48.562;14.440;2023-07-31T07:44:42;47.84;36.91;74.41;;
37223;Laerm;28026;48.562;14.440;2023-07-31T07:47:13;59.31;38.37;85.01;;
37223;Laerm;28026;48.562;14.440;2023-07-31T07:49:44;52.41;37.52;78.56;;
37223;Laerm;28026;48.562;14.440;2023-07-31T07:52:15;60.05;37.70;87.17;;
37223;Laerm;28026;48.562;14.440;2023-07-31T07:54:46;46.92;36.91;75.15;;
37223;Laerm;28026;48.562;14.440;2023-07-31T07:57:17;63.02;38.05;89.39;;
37223;Laerm;28026;48.562;14.440;2023-07-31T07:59:48;60.86;39.21;84.82;;
37223;Laerm;28026;48.562;14.440;2023-07-31T08:02:18;58.43;37.32;84.95;;
37223;Laerm;28026;48.562;14.440;2023-07-31T08:04:49;56.15;37.52;82.03;;
37223;Laerm;28026;48.562;14.440;2023-07-31T08:07:20;52.95;36.45;79.58;;
37223;Laerm;28026;48.562;14.440;2023-07-31T08:09:51;55.21;37.88;80.37;;
37223;Laerm;28026;48.562;14.440;2023-07-31T08:12:22;43.98;35.66;65.94;;
37223;Laerm;28026;48.562;14.440;2023-07-31T08:14:53;55.21;36.20;80.97;;
37223;Laerm;28026;48.562;14.440;2023-07-31T08:17:24;70.68;37.70;95.44;;
37223;Laerm;28026;48.562;14.440;2023-07-31T08:19:55;47.57;36.69;74.46;;
37223;Laerm;28026;48.562;14.440;2023-07-31T08:22:28;54.34;37.12;77.07;;
37223;Laerm;28026;48.562;14.440;2023-07-31T08:24:59;54.34;38.37;76.41;;
37223;Laerm;28026;48.562;14.440;2023-07-31T08:27:30;58.58;37.12;82.97;;
37223;Laerm;28026;48.562;14.440;2023-07-31T08:30:01;55.73;37.88;85.79;;
37223;Laerm;28026;48.562;14.440;2023-07-31T08:32:32;54.61;37.12;80.70;;
37223;Laerm;28026;48.562;14.440;2023-07-31T08:35:03;61.49;37.70;89.39;;
37223;Laerm;28026;48.562;14.440;2023-07-31T08:37:34;55.77;36.69;84.32;;
37223;Laerm;28026;48.562;14.440;2023-07-31T08:40:06;49.61;35.04;83.19;;
37223;Laerm;28026;48.562;14.440;2023-07-31T08:42:54;49.80;34.31;73.14;;
37223;Laerm;28026;48.562;14.440;2023-07-31T08:45:28;48.40;36.69;74.36;;
37223;Laerm;28026;48.562;14.440;2023-07-31T08:47:59;51.77;37.52;81.51;;
37223;Laerm;28026;48.562;14.440;2023-07-31T08:50:31;53.72;35.66;81.55;;
37223;Laerm;28026;48.562;14.440;2023-07-31T08:53:02;61.40;37.70;87.89;;
37223;Laerm;28026;48.562;14.440;2023-07-31T08:55:34;52.31;36.45;83.37;;
37223;Laerm;28026;48.562;14.440;2023-07-31T08:58:05;45.03;35.36;73.29;;
37223;Laerm;28026;48.562;14.440;2023-07-31T09:00:37;50.42;35.66;78.99;;
37223;Laerm;28026;48.562;14.440;2023-07-31T09:03:35;44.46;35.66;74.90;;
37223;Laerm;28026;48.562;14.440;2023-07-31T09:06:08;49.71;37.12;76.19;;
37223;Laerm;28026;48.562;14.440;2023-07-31T09:08:42;47.23;35.66;75.37;;
37223;Laerm;28026;48.562;14.440;2023-07-31T09:11:14;52.87;37.32;74.44;;
37223;Laerm;28026;48.562;14.440;2023-07-31T09:13:46;47.38;38.21;71.08;;
37223;Laerm;28026;48.562;14.440;2023-07-31T09:16:18;60.32;37.32;84.08;;
37223;Laerm;28026;48.562;14.440;2023-07-31T09:18:56;54.41;36.20;80.28;;
37223;Laerm;28026;48.562;14.440;2023-07-31T09:21:28;52.68;35.36;81.86;;
37223;Laerm;28026;48.562;14.440;2023-07-31T09:23:59;53.60;34.69;79.45;;
37223;Laerm;28026;48.562;14.440;2023-07-31T09:26:36;57.69;36.69;83.05;;
37223;Laerm;28026;48.562;14.440;2023-07-31T09:29:19;44.85;36.69;69.15;;
37223;Laerm;28026;48.562;14.440;2023-07-31T09:31:50;40.99;35.66;62.32;;
37223;Laerm;28026;48.562;14.440;2023-07-31T09:34:38;44.89;37.52;74.56;;
37223;Laerm;28026;48.562;14.440;2023-07-31T09:37:11;54.16;37.70;84.39;;
37223;Laerm;28026;48.562;14.440;2023-07-31T09:39:48;57.01;38.05;86.97;;
37223;Laerm;28026;48.562;14.440;2023-07-31T09:42:26;59.46;37.12;83.25;;
37223;Laerm;28026;48.562;14.440;2023-07-31T09:45:09;61.19;37.88;89.48;;
37223;Laerm;28026;48.562;14.440;2023-07-31T09:47:47;61.85;38.67;88.14;;
37223;Laerm;28026;48.562;14.440;2023-07-31T09:50:24;64.58;37.12;93.64;;
37223;Laerm;28026;48.562;14.440;2023-07-31T09:52:55;60.99;39.21;84.23;;
37223;Laerm;28026;48.562;14.440;2023-07-31T09:55:28;53.66;37.88;80.05;;
37223;Laerm;28026;48.562;14.440;2023-07-31T09:58:06;54.62;35.66;81.30;;
37223;Laerm;28026;48.562;14.440;2023-07-31T10:00:38;53.64;36.91;78.28;;
37223;Laerm;28026;48.562;14.440;2023-07-31T10:03:10;65.07;37.52;91.58;;
37223;Laerm;28026;48.562;14.440;2023-07-31T10:05:50;61.14;38.05;86.21;;
37223;Laerm;28026;48.562;14.440;2023-07-31T10:08:30;66.97;39.08;94.73;;
37223;Laerm;28026;48.562;14.440;2023-07-31T10:11:05;61.15;36.45;84.28;;
37223;Laerm;28026;48.562;14.440;2023-07-31T10:13:38;53.21;38.67;77.39;;
37223;Laerm;28026;48.562;14.440;2023-07-31T10:16:11;59.72;39.92;87.82;;
37223;Laerm;28026;48.562;14.440;2023-07-31T10:18:43;63.54;40.63;90.56;;
37223;Laerm;28026;48.562;14.440;2023-07-31T10:21:16;66.78;40.13;88.61;;
37223;Laerm;28026;48.562;14.440;2023-07-31T10:23:48;67.97;37.52;92.09;;
37223;Laerm;28026;48.562;14.440;2023-07-31T10:26:23;47.15;36.69;72.68;;
37223;Laerm;28026;48.562;14.440;2023-07-31T10:28:55;51.48;37.12;74.13;;
37223;Laerm;28026;48.562;14.440;2023-07-31T10:31:28;46.57;34.34;75.02;;
37223;Laerm;28026;48.562;14.440;2023-07-31T10:34:00;41.54;35.94;64.21;;
37223;Laerm;28026;48.562;14.440;2023-07-31T10:36:33;49.60;36.20;72.04;;
37223;Laerm;28026;48.562;14.440;2023-07-31T10:39:35;48.53;35.36;75.51;;
37223;Laerm;28026;48.562;14.440;2023-07-31T10:42:12;47.21;36.69;69.27;;
37223;Laerm;28026;48.562;14.440;2023-07-31T10:44:46;46.11;36.69;70.03;;
37223;Laerm;28026;48.562;14.440;2023-07-31T10:47:17;47.02;38.05;74.27;;
37223;Laerm;28026;48.562;14.440;2023-07-31T10:49:49;43.11;36.69;64.62;;
37223;Laerm;28026;48.562;14.440;2023-07-31T10:52:21;39.73;34.31;49.96;;
37223;Laerm;28026;48.562;14.440;2023-07-31T10:58:19;53.79;37.32;86.01;;
37223;Laerm;28026;48.562;14.440;2023-07-31T11:01:01;48.88;35.94;71.33;;
37223;Laerm;28026;48.562;14.440;2023-07-31T11:03:48;59.85;38.52;86.13;;
37223;Laerm;28026;48.562;14.440;2023-07-31T11:06:22;50.12;37.32;75.88;;
37223;Laerm;28026;48.562;14.440;2023-07-31T11:08:53;65.04;38.52;92.74;;
37223;Laerm;28026;48.562;14.440;2023-07-31T11:11:24;66.17;36.91;94.88;;
37223;Laerm;28026;48.562;14.440;2023-07-31T11:13:55;58.42;39.70;79.89;;
37223;Laerm;28026;48.562;14.440;2023-07-31T11:16:26;61.84;36.91;89.22;;
37223;Laerm;28026;48.562;14.440;2023-07-31T11:18:57;48.79;35.66;73.82;;
37223;Laerm;28026;48.562;14.440;2023-07-31T11:21:28;51.41;36.77;79.59;;
37223;Laerm;28026;48.562;14.440;2023-07-31T11:23:59;59.22;37.32;84.32;;
37223;Laerm;28026;48.562;14.440;2023-07-31T11:26:30;52.66;37.12;79.97;;
37223;Laerm;28026;48.562;14.440;2023-07-31T11:29:01;48.89;37.52;78.25;;
37223;Laerm;28026;48.562;14.440;2023-07-31T11:31:32;58.70;38.67;84.61;;
37223;Laerm;28026;48.562;14.440;2023-07-31T11:34:09;48.24;37.70;72.40;;
37223;Laerm;28026;48.562;14.440;2023-07-31T11:36:40;43.21;34.69;63.54;;
37223;Laerm;28026;48.562;14.440;2023-07-31T11:39:11;49.48;36.45;77.56;;
37223;Laerm;28026;48.562;14.440;2023-07-31T11:41:42;49.83;36.20;74.59;;
37223;Laerm;28026;48.562;14.440;2023-07-31T11:44:13;49.19;36.20;75.86;;
37223;Laerm;28026;48.562;14.440;2023-07-31T11:46:44;49.94;37.32;70.15;;
37223;Laerm;28026;48.562;14.440;2023-07-31T11:49:15;56.37;36.91;82.86;;
37223;Laerm;28026;48.562;14.440;2023-07-31T11:51:46;60.57;38.05;87.12;;
37223;Laerm;28026;48.562;14.440;2023-07-31T11:54:18;58.39;37.70;81.85;;
37223;Laerm;28026;48.562;14.440;2023-07-31T11:56:49;55.97;38.05;79.26;;
37223;Laerm;28026;48.562;14.440;2023-07-31T11:59:21;61.24;37.32;83.75;;
37223;Laerm;28026;48.562;14.440;2023-07-31T12:01:53;66.53;39.34;91.25;;
37223;Laerm;28026;48.562;14.440;2023-07-31T12:04:24;61.83;37.52;86.04;;
37223;Laerm;28026;48.562;14.440;2023-07-31T12:06:56;48.69;36.45;74.33;;
37223;Laerm;28026;48.562;14.440;2023-07-31T12:09:27;49.90;38.52;74.06;;
37223;Laerm;28026;48.562;14.440;2023-07-31T12:11:58;56.14;38.52;83.91;;
37223;Laerm;28026;48.562;14.440;2023-07-31T12:14:30;52.03;38.21;78.67;;
37223;Laerm;28026;48.562;14.440;2023-07-31T12:17:04;50.43;39.58;77.34;;
37223;Laerm;28026;48.562;14.440;2023-07-31T12:19:37;55.75;37.70;82.68;;
37223;Laerm;28026;48.562;14.440;2023-07-31T12:22:16;54.33;36.91;83.11;;
37223;Laerm;28026;48.562;14.440;2023-07-31T12:24:47;54.60;37.32;82.25;;
37223;Laerm;28026;48.562;14.440;2023-07-31T12:27:18;64.13;39.68;87.53;;
37223;Laerm;28026;48.562;14.440;2023-07-31T12:29:49;62.73;39.46;87.93;;
37223;Laerm;28026;48.562;14.440;2023-07-31T12:32:24;51.39;36.91;80.10;;
37223;Laerm;28026;48.562;14.440;2023-07-31T12:35:00;47.52;36.69;74.65;;
37223;Laerm;28026;48.562;14.440;2023-07-31T12:37:33;58.01;37.12;87.58;;
37223;Laerm;28026;48.562;14.440;2023-07-31T12:40:04;57.27;37.12;82.66;;
37223;Laerm;28026;48.562;14.440;2023-07-31T12:42:36;65.91;37.88;87.27;;
37223;Laerm;28026;48.562;14.440;2023-07-31T12:45:07;59.62;36.69;88.49;;
37223;Laerm;28026;48.562;14.440;2023-07-31T12:47:38;60.04;35.36;85.20;;
37223;Laerm;28026;48.562;14.440;2023-07-31T12:50:09;58.61;37.52;83.65;;
37223;Laerm;28026;48.562;14.440;2023-07-31T12:52:40;60.89;37.88;84.17;;
37223;Laerm;28026;48.562;14.440;2023-07-31T12:55:11;61.33;37.70;90.72;;
37223;Laerm;28026;48.562;14.440;2023-07-31T12:57:42;49.95;37.12;74.65;;
37223;Laerm;28026;48.562;14.440;2023-07-31T13:00:13;42.81;36.91;68.00;;
37223;Laerm;28026;48.562;14.440;2023-07-31T13:02:45;56.36;37.88;83.53;;
37223;Laerm;28026;48.562;14.440;2023-07-31T13:05:16;47.88;36.69;72.24;;
37223;Laerm;28026;48.562;14.440;2023-07-31T13:07:48;64.31;38.37;89.57;;
37223;Laerm;28026;48.562;14.440;2023-07-31T13:10:19;66.68;38.21;93.57;;
37223;Laerm;28026;48.562;14.440;2023-07-31T13:12:50;73.80;41.75;95.98;;
37223;Laerm;28026;48.562;14.440;2023-07-31T13:15:21;71.42;41.46;96.70;;
37223;Laerm;28026;48.562;14.440;2023-07-31T13:17:52;63.87;38.67;84.32;;
37223;Laerm;28026;48.562;14.440;2023-07-31T13:20:23;65.24;38.52;88.18;;
37223;Laerm;28026;48.562;14.440;2023-07-31T13:22:54;53.53;37.32;80.37;;
37223;Laerm;28026;48.562;14.440;2023-07-31T13:25:25;45.75;37.70;68.32;;
37223;Laerm;28026;48.562;14.440;2023-07-31T13:27:56;45.95;36.91;72.10;;
37223;Laerm;28026;48.562;14.440;2023-07-31T13:30:27;54.91;37.32;82.65;;
37223;Laerm;28026;48.562;14.440;2023-07-31T13:32:58;49.20;37.88;80.21;;
37223;Laerm;28026;48.562;14.440;2023-07-31T13:35:29;70.74;37.88;97.88;;
37223;Laerm;28026;48.562;14.440;2023-07-31T13:38:02;62.47;39.81;86.96;;
37223;Laerm;28026;48.562;14.440;2023-07-31T13:40:32;64.67;38.81;89.12;;
37223;Laerm;28026;48.562;14.440;2023-07-31T13:43:03;62.81;38.02;86.61;;
37223;Laerm;28026;48.562;14.440;2023-07-31T13:45:34;59.73;38.81;82.84;;
37223;Laerm;28026;48.562;14.440;2023-07-31T13:48:05;43.48;38.37;64.90;;
37223;Laerm;28026;48.562;14.440;2023-07-31T13:50:36;63.91;39.34;92.00;;
37223;Laerm;28026;48.562;14.440;2023-07-31T13:53:07;65.28;40.13;90.07;;
37223;Laerm;28026;48.562;14.440;2023-07-31T13:55:38;63.80;40.13;88.90;;
37223;Laerm;28026;48.562;14.440;2023-07-31T13:58:09;65.77;39.81;91.51;;
37223;Laerm;28026;48.562;14.440;2023-07-31T14:00:40;63.26;38.81;88.09;;
37223;Laerm;28026;48.562;14.440;2023-07-31T14:03:11;52.71;38.05;80.11;;
37223;Laerm;28026;48.562;14.440;2023-07-31T14:05:42;49.19;38.95;70.40;;
37223;Laerm;28026;48.562;14.440;2023-07-31T14:08:13;55.21;38.05;83.24;;
37223;Laerm;28026;48.562;14.440;2023-07-31T14:10:43;64.91;39.08;89.35;;